Tiempo atmosférico en la estación meteorológica de Mosqueruela, Teruel (1505 m.)



Fecha
DESCASC
Temp. máxima en grados centígrados (hora)
DESCASC
Temp. mínima en grados centígrados (hora)
DESCASC
Temp. media en grados centígrados
DESCASC
Racha de viento máxima en m/sg (hora)
DESCASC
Velocidad máxima media en intervalos de 10 minutos(hora)
DESCASC
Precipitaciones diarias en mm
DESCASC
Precipitaciones de 00:00 a 06:00 en mm
DESCASC
Precipitaciones de 06:00 a 12:00 en mm
DESCASC
Precipitaciones de 12:00 a 18:00 en mm
DESCASC
Precipitaciones de 18:00 a 24:00 en mm
DESCASC
29-10-2020 17.2 (14:10) 4.7 (04:40) 11 10 (19:10) 8.06 (19:10) 0 0 0 0 0
28-10-2020 16.1 (13:40) 5.6 (07:20) 10.9 12.5 (00:30) 9.44 (00:20) 0 0 0 0 0
27-10-2020 11.9 (13:40) 1.5 (00:00) 6.7 15.83 (04:00) 11.11 (04:00) 0 0 0 0 0
26-10-2020 8.1 (00:10) 0.9 (00:00) 4.5 24.72 (10:20) 17.78 (10:20) 0 0 0 0 0
25-10-2020 14.6 (11:50) 4.5 (00:00) 9.6 18.06 (10:20) 11.39 (10:20) 0 0 0 0 0
24-10-2020 16 (15:30) 1.7 (00:00) 8.9 14.17 (01:00) 10.28 (03:10) 0 0 0 0 0
23-10-2020 12.1 (16:00) 5.3 (00:00) 8.7 15.28 (05:50) 10.83 (05:50) 0.2 0.2 0 0 0
22-10-2020 13.6 (10:50) 8.4 (00:00) 11 11.11 (18:40) 6.39 (18:40) 3.2 0 0 3.2 0
21-10-2020 16.4 (14:20) 9 (00:00) 12.7 12.78 (06:20) 8.33 (11:40) 0 0 0 0 0
20-10-2020 13.9 (16:00) 7.4 (00:00) 10.6 12.5 (13:20) 8.06 (14:10) 0 0 0 0 0
19-10-2020 15.9 (14:00) 6.7 (00:00) 11.3 11.39 (13:10) 6.67 (14:20) 0 0 0 0 0
18-10-2020 16.3 (15:50) 3.8 (00:00) 10 10 (03:00) 7.78 (03:00) 0 0 0 0 0
17-10-2020 13.6 (14:20) 0.4 (00:00) 7 7.78 (13:00) 5.28 (12:40) 0 0 0 0 0
16-10-2020 12 (16:50) -0.4 (00:00) 5.8 20.28 (03:40) 15.56 (05:00) 0 0 0 0 0
15-10-2020 7.5 (14:40) 0.4 (00:00) 4 20.28 (00:50) 14.44 (01:00) 0 0 0 0 0
14-10-2020 8.6 (00:30) 2.2 (00:00) 5.4 18.33 (22:50) 11.67 (22:40) 0 0 0 0 0
13-10-2020 14.8 (16:20) 6.3 (00:00) 10.6 17.78 (10:30) 11.67 (03:40) 0 0 0 0 0
12-10-2020 10.4 (16:00) 2.2 (00:00) 6.3 22.78 (08:40) 17.78 (08:50) 0 0 0 0 0
11-10-2020 10 (15:40) 2 (00:00) 6 22.78 (22:40) 16.39 (23:20) 0 0 0 0 0
10-10-2020 17 (12:50) 6.5 (00:00) 11.8 11.94 (23:59) 8.61 (23:59) 0 0 0 0 0
09-10-2020 22.4 (13:20) 11.2 (00:00) 16.8 8.61 (02:20) 7.22 (02:20) 0 0 0 0 0
08-10-2020 22.1 (15:30) 8.5 (00:00) 15.3 11.11 (15:00) 7.22 (13:20) 0 0 0 0 0
07-10-2020 19 (15:10) 10.4 (00:00) 14.7 18.89 (12:50) 13.06 (13:10) 0 0 0 0 0
06-10-2020 18.6 (13:40) 5.6 (00:00) 12.1 13.33 (08:10) 10.28 (03:20) 0 0 0 0 0
05-10-2020 12.1 (15:50) 3.8 (00:00) 8 15.56 (11:50) 11.39 (11:30) 0 0 0 0 0
04-10-2020 11 (12:40) 0.3 (00:00) 5.7 16.67 (16:20) 9.17 (16:30) 0 0 0 0 0
03-10-2020 10.9 (16:20) 1.7 (00:00) 6.3 22.78 (05:00) 15.56 (04:50) 0 0 0 0 0
02-10-2020 11.9 (03:40) 1.9 (00:00) 6.9 22.5 (18:00) 14.17 (18:00) 8.4 0 0 8.2 0.2
01-10-2020 21.5 (14:00) 9.6 (07:30) 15.6 11.67 (03:20) 8.89 (03:20) 0 0 0 0 0

Gráficas

Temp. máximas Temp. mínimas Temp. medias Precipitaciones Rachas de viento máximas Velocidades máximas media en intervalos de 10 minutos

Datos horarios

Fecha y hora oficial Temperatura (ºC) Velocidad del viento (km/h) Dirección del viento Racha (km/h) Dirección de racha Precipitación (mm) Presión (hPa) Tendencia (hPa) Humedad (%)
2020-10-30 23:00:00 12.1 13 Sudoeste 19 Sudoeste 0 -- -- 30
2020-10-30 22:00:00 14 18 Sudoeste 22 Sudoeste 0 -- -- 30
2020-10-30 21:00:00 13.7 16 Sudoeste 19 Sudoeste 0 -- -- 31
2020-10-30 20:00:00 12.7 12 Sudoeste 17 Sudoeste 0 -- -- 36
2020-10-30 19:00:00 13.1 13 Sudoeste 15 Sudoeste 0 -- -- 32
2020-10-30 18:00:00 14 5 Sudoeste 13 Sur 0 -- -- 39
2020-10-30 17:00:00 18.7 9 Sur 20 Sur 0 -- -- 28
2020-10-30 16:00:00 20.6 12 Sudeste 31 Sudeste 0 -- -- 21
2020-10-30 15:00:00 21.2 17 Sudeste 32 Sur 0 -- -- 20
2020-10-30 14:00:00 21.3 21 Sur 30 Sudeste 0 -- -- 20
2020-10-30 13:00:00 21.3 17 Sur 26 Sudeste 0 -- -- 20
2020-10-30 12:00:00 20.2 15 Sudeste 25 Sudeste 0 -- -- 18
2020-10-30 11:00:00 19.6 10 Este 19 Sudeste 0 -- -- 13
2020-10-30 10:00:00 17.7 7 Este 12 Este 0 -- -- 15
2020-10-30 09:00:00 16.3 0 Calma 11 Sudoeste 0 -- -- 16
2020-10-30 08:00:00 10 10 Sudoeste 14 Sudoeste 0 -- -- 17
2020-10-30 07:00:00 9.2 14 Sudoeste 16 Sudoeste 0 -- -- 18
2020-10-30 06:00:00 7.8 6 Sudoeste 14 Sudoeste 0 -- -- 29
2020-10-30 05:00:00 6.9 5 Sudoeste 10 Sudoeste 0 -- -- 40
2020-10-30 04:00:00 8.2 8 Sudoeste 13 Sudoeste 0 -- -- 37
2020-10-30 03:00:00 8.9 9 Sudoeste 13 Sudoeste 0 -- -- 49
2020-10-30 02:00:00 8.9 9 Sudoeste 13 Sudoeste 0 -- -- 51
2020-10-30 01:00:00 8.8 9 Sudoeste 12 Sudoeste 0 -- -- 49
2020-10-30 00:00:00 9.2 8 Oeste 12 Sudoeste 0 -- -- 45
2020-10-29 23:00:00 9.2 8 Sudoeste 12 Sudoeste 0 -- -- 35
2020-10-29 22:00:00 8.3 9 Sudoeste 12 Sudoeste 0 -- -- 50
2020-10-29 21:00:00 8.9 6 Oeste 10 Norte 0 -- -- 51
2020-10-29 20:00:00 9.1 11 Sudoeste 36 Oeste 0 -- -- 53
2020-10-29 19:00:00 11.4 26 Oeste 31 Oeste 0 -- -- 57
2020-10-29 18:00:00 12.8 12 Sur 18 Sur 0 -- -- 64
2020-10-29 17:00:00 16.7 6 Oeste 21 Sudeste 0 -- -- 39
2020-10-29 16:00:00 16.7 12 Sudeste 19 Este 0 -- -- 53
2020-10-29 15:00:00 17 11 Este 19 Este 0 -- -- 52
2020-10-29 14:00:00 16.6 16 Sudeste 28 Sudeste 0 -- -- 49
2020-10-29 13:00:00 16.4 19 Sudeste 32 Sudeste 0 -- -- 54
2020-10-29 12:00:00 14.4 20 Sudeste 30 Sudeste 0 -- -- 61
2020-10-29 11:00:00 13.2 18 Sudeste 26 Sur 0 -- -- 65
2020-10-29 10:00:00 11.3 17 Sudeste 24 Sudeste 0 -- -- 74
2020-10-29 09:00:00 9.9 2 Nordeste 11 Sudoeste 0 -- -- 81
2020-10-29 08:00:00 6.2 11 Sudoeste 19 Sur 0 -- -- 92
2020-10-29 07:00:00 6 3 Oeste 8 Sur 0 -- -- 92
2020-10-29 06:00:00 5 5 Sudoeste 15 Oeste 0 -- -- 92
2020-10-29 05:00:00 5.3 11 Sudoeste 17 Sudoeste 0 -- -- 89
2020-10-29 04:00:00 5.6 6 Oeste 17 Sudoeste 0 -- -- 89
2020-10-29 03:00:00 6.1 3 Sudeste 22 Oeste 0 -- -- 90
2020-10-29 02:00:00 5.8 2 Oeste 14 Oeste 0 -- -- 87
2020-10-29 01:00:00 5.9 7 Oeste 13 Sudoeste 0 -- -- 84
2020-10-29 00:00:00 5.7 6 Sudoeste 12 Sur 0 -- -- 86
2020-10-28 23:00:00 6.3 8 Oeste 30 Oeste 0 -- -- 85
2020-10-28 22:00:00 8.6 5 Sudoeste 33 Oeste 0 -- -- 80
2020-10-28 21:00:00 8.4 20 Oeste 26 Oeste 0 -- -- 82
2020-10-28 20:00:00 9.4 15 Oeste 23 Oeste 0 -- -- 78
2020-10-28 19:00:00 10.4 14 Oeste 19 Oeste 0 -- -- 72
2020-10-28 18:00:00 11.9 15 Noroeste 22 Noroeste 0 -- -- 66
2020-10-28 17:00:00 14.3 12 Oeste 28 Sudoeste 0 -- -- 55
2020-10-28 16:00:00 15.6 18 Oeste 30 Sudoeste 0 -- -- 52
2020-10-28 15:00:00 15.9 14 Sudoeste 31 Oeste 0 -- -- 54
2020-10-28 14:00:00 15.4 15 Oeste 25 Oeste 0 -- -- 55
2020-10-28 13:00:00 13.9 16 Oeste 33 Oeste 0 -- -- 62
2020-10-28 12:00:00 15.3 14 Oeste 24 Oeste 0 -- -- 57
2020-10-28 11:00:00 15.1 7 Nordeste 17 Noroeste 0 -- -- 61
2020-10-28 10:00:00 13.6 5 Oeste 30 Oeste 0 -- -- 64
2020-10-28 09:00:00 11.4 18 Oeste 33 Oeste 0 -- -- 73
2020-10-28 08:00:00 8.3 0 Calma 13 Oeste 0 -- -- 85
2020-10-28 07:00:00 7.5 7 Norte 28 Oeste 0 -- -- 83
2020-10-28 06:00:00 9.3 28 Oeste 37 Oeste 0 -- -- 78
2020-10-28 05:00:00 9.6 15 Oeste 26 Oeste 0 -- -- 78
2020-10-28 04:00:00 10 18 Oeste 37 Oeste 0 -- -- 72
2020-10-28 03:00:00 8.6 26 Oeste 36 Oeste 0 -- -- 73
2020-10-28 02:00:00 9 27 Oeste 37 Oeste 0 -- -- 59
2020-10-28 01:00:00 8.8 14 Oeste 45 Oeste 0 -- -- 48
2020-10-28 00:00:00 9.4 20 Oeste 41 Oeste 0 -- -- 55
2020-10-27 23:00:00 9.2 30 Oeste 41 Oeste 0 -- -- 58
2020-10-27 22:00:00 4.5 3 Oeste 10 Oeste 0 -- -- 77
2020-10-27 21:00:00 5.2 2 Noroeste 8 Oeste 0 -- -- 72
2020-10-27 20:00:00 5.8 2 Nordeste 8 Noroeste 0 -- -- 70
2020-10-27 19:00:00 7.2 7 Norte 26 Oeste 0 -- -- 64
2020-10-27 18:00:00 8.6 15 Oeste 26 Oeste 0 -- -- 59
2020-10-27 17:00:00 10.5 15 Oeste 27 Oeste 0 -- -- 53
2020-10-27 16:00:00 11.3 16 Noroeste 31 Oeste 0 -- -- 52
2020-10-27 15:00:00 11.5 16 Oeste 26 Noroeste 0 -- -- 50
2020-10-27 14:00:00 10.4 10 Noroeste 23 Noroeste 0 -- -- 48
2020-10-27 13:00:00 9.4 6 Sudeste 36 Oeste 0 -- -- 40
2020-10-27 12:00:00 6.7 16 Oeste 38 Oeste 0 -- -- 49
2020-10-27 11:00:00 6.1 28 Oeste 46 Oeste 0 -- -- 58
2020-10-27 10:00:00 5.5 33 Oeste 46 Oeste 0 -- -- 61
2020-10-27 09:00:00 3.4 14 Oeste 48 Oeste 0 -- -- 74
2020-10-27 08:00:00 2.3 15 Oeste 42 Noroeste 0 -- -- 78
2020-10-27 07:00:00 2.1 17 Oeste 38 Sudoeste 0 -- -- 78
2020-10-27 06:00:00 1.7 11 Oeste 46 Oeste 0 -- -- 80
2020-10-27 05:00:00 1.7 28 Noroeste 57 Oeste 0 -- -- 81
2020-10-27 04:00:00 1.6 40 Oeste 57 Oeste 0 -- -- 81
2020-10-27 03:00:00 1.9 40 Oeste 56 Oeste 0 -- -- 79
2020-10-27 02:00:00 1.9 32 Oeste 47 Oeste 0 -- -- 78
2020-10-27 01:00:00 1.8 24 Oeste 40 Oeste 0 -- -- 76
2020-10-27 00:00:00 1.9 23 Oeste 64 Oeste 0 -- -- 74
2020-10-26 23:00:00 2.3 41 Oeste 65 Noroeste 0 -- -- 70
2020-10-26 22:00:00 2.3 45 Oeste 78 Oeste 0 -- -- 71
2020-10-26 21:00:00 2.5 47 Oeste 67 Oeste 0 -- -- 71
2020-10-26 20:00:00 2.6 45 Oeste 69 Oeste 0 -- -- 73
2020-10-26 19:00:00 3 45 Oeste 60 Oeste 0 -- -- 72
2020-10-26 18:00:00 3.6 37 Oeste 60 Noroeste 0 -- -- 68
2020-10-26 17:00:00 4.4 44 Oeste 68 Oeste 0 -- -- 64
2020-10-26 16:00:00 5.7 26 Oeste 50 Oeste 0 -- -- 60
2020-10-26 15:00:00 5.6 21 Oeste 58 Oeste 0 -- -- 62
2020-10-26 14:00:00 4.9 36 Oeste 62 Oeste 0 -- -- 64
2020-10-26 13:00:00 4.9 40 Oeste 75 Oeste 0 -- -- 62
2020-10-26 12:00:00 3.4 58 Oeste 82 Noroeste 0 -- -- 71
2020-10-26 11:00:00 2.7 59 Oeste 89 Oeste 0 -- -- 74
2020-10-26 10:00:00 2.2 53 Oeste 75 Oeste 0 -- -- 75
2020-10-26 09:00:00 1.9 38 Oeste 65 Oeste 0 -- -- 80
2020-10-26 08:00:00 1.1 33 Oeste 62 Oeste 0 -- -- 80
2020-10-26 07:00:00 1.3 35 Oeste 53 Oeste 0 -- -- 81
2020-10-26 06:00:00 1.6 24 Noroeste 49 Noroeste 0 -- -- 82
2020-10-26 05:00:00 2.5 30 Oeste 46 Oeste 0 -- -- 83
2020-10-26 04:00:00 3.3 20 Oeste 40 Oeste 0 -- -- 81
2020-10-26 03:00:00 4.7 20 Oeste 41 Oeste 0 -- -- 84
2020-10-26 02:00:00 6.3 17 Oeste 40 Oeste 0 -- -- 82
2020-10-26 01:00:00 7.1 22 Oeste 61 Sudoeste 0 -- -- 81
2020-10-26 00:00:00 8 31 Sudoeste 62 Sudoeste 0 -- -- 79
2020-10-25 23:00:00 8.1 25 Sudoeste 57 Sudoeste 0 -- -- 87
2020-10-25 22:00:00 8.3 37 Sudoeste 59 Sudoeste 0 -- -- 85
2020-10-25 21:00:00 8.6 18 Sudoeste 51 Sur 0 -- -- 82
2020-10-25 20:00:00 8.5 28 Sudoeste 40 Sur 0 -- -- 80
2020-10-25 19:00:00 8.6 21 Sudoeste 33 Sudoeste 0 -- -- 76
2020-10-25 18:00:00 9 22 Sudoeste 34 Sudoeste 0 -- -- 68
2020-10-25 17:00:00 10.8 22 Sudoeste 36 Sudoeste 0 -- -- 61
2020-10-25 16:00:00 11.7 28 Sudoeste 47 Sudoeste 0 -- -- 58
2020-10-25 15:00:00 13.7 29 Sudoeste 54 Sudoeste 0 -- -- 48
2020-10-25 14:00:00 13.2 33 Oeste 64 Sudoeste 0 -- -- 48
2020-10-25 13:00:00 14.5 24 Oeste 63 Sudoeste 0 -- -- 44
2020-10-25 12:00:00 14.2 31 Sudoeste 62 Oeste 0 -- -- 43
2020-10-25 11:00:00 14.1 37 Sudoeste 65 Sudoeste 0 -- -- 41
2020-10-25 10:00:00 13.1 37 Sudoeste 64 Sudoeste 0 -- -- 42
2020-10-25 09:00:00 11.5 14 Oeste 44 Sudoeste 0 -- -- 48
2020-10-25 08:00:00 9.3 8 Norte 46 Sudoeste 0 -- -- 54
2020-10-25 07:00:00 9.3 14 Sudoeste 42 Sur 0 -- -- 53
2020-10-25 06:00:00 8.3 13 Oeste 51 Oeste 0 -- -- 55
2020-10-25 05:00:00 8.5 24 Sudoeste 46 Oeste 0 -- -- 56
2020-10-25 04:00:00 7.6 5 Oeste 20 Oeste 0 -- -- 57
2020-10-25 03:00:00 5.7 7 Sudoeste 29 Oeste 0 -- -- 63
2020-10-25 02:00:00 6.5 7 Oeste 19 Oeste 0 -- -- 63
2020-10-25 01:00:00 5.3 2 Oeste 11 Oeste 0 -- -- 62
2020-10-25 00:00:00 7.3 9 Oeste 22 Oeste 0 -- -- 57
2020-10-24 23:00:00 7.5 7 Oeste 18 Sudoeste 0 -- -- 55
2020-10-24 22:00:00 7.8 19 Oeste 28 Oeste 0 -- -- 61
2020-10-24 21:00:00 8.2 17 Oeste 19 Oeste 0 -- -- 64
2020-10-24 20:00:00 8.3 8 Oeste 14 Oeste 0 -- -- 62
2020-10-24 19:00:00 10.8 6 Oeste 19 Oeste 0 -- -- 53
2020-10-24 18:00:00 13.6 9 Oeste 23 Oeste 0 -- -- 43
2020-10-24 17:00:00 14.5 13 Oeste 27 Oeste 0 -- -- 37
2020-10-24 16:00:00 15.6 14 Oeste 26 Sudoeste 0 -- -- 35
2020-10-24 15:00:00 15.4 8 Sudeste 21 Sudoeste 0 -- -- 43
2020-10-24 14:00:00 15.8 6 Nordeste 14 Norte 0 -- -- 40
2020-10-24 13:00:00 13.5 4 Sudeste 13 Este 0 -- -- 46
2020-10-24 12:00:00 12 9 Este 15 Este 0 -- -- 51
2020-10-24 11:00:00 10.5 6 Oeste 27 Oeste 0 -- -- 55
2020-10-24 10:00:00 7.3 14 Oeste 39 Oeste 0 -- -- 67
2020-10-24 09:00:00 4.2 4 Noroeste 17 Oeste 0 -- -- 81
2020-10-24 08:00:00 2.9 3 Nordeste 28 Oeste 0 -- -- 90
2020-10-24 07:00:00 4.2 11 Oeste 27 Sudoeste 0 -- -- 82
2020-10-24 06:00:00 4.1 8 Noroeste 38 Oeste 0 -- -- 84
2020-10-24 05:00:00 4.8 25 Oeste 45 Oeste 0 -- -- 80
2020-10-24 04:00:00 4.6 32 Oeste 47 Oeste 0 -- -- 83
2020-10-24 03:00:00 4.8 35 Oeste 46 Oeste 0 -- -- 83
2020-10-24 02:00:00 5 33 Oeste 47 Oeste 0 -- -- 83
2020-10-24 01:00:00 5.2 30 Oeste 51 Noroeste 0 -- -- 81
2020-10-24 00:00:00 5.4 31 Oeste 48 Oeste 0 -- -- 79
2020-10-23 23:00:00 5.4 26 Oeste 43 Oeste 0 -- -- 79
2020-10-23 22:00:00 5.6 25 Oeste 39 Oeste 0 -- -- 82
2020-10-23 21:00:00 6.1 18 Oeste 28 Oeste 0 -- -- 76
2020-10-23 20:00:00 6.3 20 Oeste 26 Oeste 0 -- -- 79
2020-10-23 19:00:00 7.3 16 Oeste 30 Sudoeste 0 -- -- 74
2020-10-23 18:00:00 10.1 14 Oeste 29 Sudoeste 0 -- -- 58
2020-10-23 17:00:00 10.2 20 Oeste 35 Oeste 0 -- -- 57
2020-10-23 16:00:00 12.1 14 Oeste 31 Oeste 0 -- -- 51
2020-10-23 15:00:00 11 18 Noroeste 31 Noroeste 0 -- -- 55
2020-10-23 14:00:00 10.1 14 Oeste 38 Sudoeste 0 -- -- 59
2020-10-23 13:00:00 9 16 Oeste 32 Oeste 0 -- -- 64
2020-10-23 12:00:00 10.2 15 Oeste 29 Noroeste 0 -- -- 61
2020-10-23 11:00:00 9.4 14 Oeste 27 Sudoeste 0 -- -- 66
2020-10-23 10:00:00 8.3 14 Sudoeste 46 Oeste 0 -- -- 70
2020-10-23 09:00:00 6.9 30 Oeste 45 Oeste 0 -- -- 78
2020-10-23 08:00:00 6.4 22 Oeste 40 Oeste 0 -- -- 81
2020-10-23 07:00:00 6.9 23 Oeste 48 Oeste 0 -- -- 84
2020-10-23 06:00:00 7.4 35 Oeste 55 Oeste 0.2 -- -- 85
2020-10-23 05:00:00 7.8 31 Oeste 48 Oeste 0 -- -- 85
2020-10-23 04:00:00 8 22 Sudoeste 36 Sudoeste 0 -- -- 87
2020-10-23 03:00:00 7 0 Calma 7 Sudoeste 0 -- -- 95
2020-10-23 02:00:00 7.4 2 Oeste 12 Sudoeste 0 -- -- 95
2020-10-23 01:00:00 7.5 3 Oeste 14 Sudoeste 0 -- -- 96
2020-10-23 00:00:00 8.4 10 Sur 17 Sudoeste 0 -- -- 94
2020-10-22 23:00:00 8.5 10 Sur 18 Sur 0 -- -- 95
2020-10-22 22:00:00 8.9 10 Sur 17 Sur 0 -- -- 98
2020-10-22 21:00:00 9.1 5 Sur 20 Sur 0 -- -- 98
2020-10-22 20:00:00 9.2 12 Sur 32 Sur 0 -- -- 98
2020-10-22 19:00:00 9.4 22 Sur 40 Sur 0 -- -- 97
2020-10-22 18:00:00 9.6 22 Sur 36 Sur 0.4 -- -- 97
2020-10-22 17:00:00 9.8 15 Sudeste 28 Sudeste 1.4 -- -- 96
2020-10-22 16:00:00 10 13 Sur 24 Sudeste 1.2 -- -- 94
2020-10-22 15:00:00 10.5 14 Sur 28 Sur 0.2 -- -- 93
2020-10-22 14:00:00 12.8 17 Sudeste 33 Sudeste 0 -- -- 73
2020-10-22 13:00:00 13.3 17 Sudeste 31 Sudeste 0 -- -- 67
2020-10-22 12:00:00 13 13 Sudeste 25 Sudeste 0 -- -- 68
2020-10-22 11:00:00 13.3 18 Sudeste 26 Sudeste 0 -- -- 68
2020-10-22 10:00:00 11.5 13 Sur 19 Sur 0 -- -- 75
2020-10-22 09:00:00 11.4 11 Sur 22 Sur 0 -- -- 76
2020-10-22 08:00:00 10.5 9 Sur 16 Sur 0 -- -- 79
2020-10-22 07:00:00 10.5 6 Sur 26 Sur 0 -- -- 80
2020-10-22 06:00:00 10.9 15 Sur 25 Sur 0 -- -- 77
2020-10-22 05:00:00 10.9 14 Sur 23 Sur 0 -- -- 79
2020-10-22 04:00:00 11.6 16 Sur 25 Sur 0 -- -- 73
2020-10-22 03:00:00 11.2 14 Sur 32 Sur 0 -- -- 74
2020-10-22 02:00:00 11.4 17 Sur 29 Sur 0 -- -- 73
2020-10-22 01:00:00 11.1 14 Sur 23 Sur 0 -- -- 71
2020-10-22 00:00:00 10.1 6 Sudoeste 15 Sudoeste 0 -- -- 73
2020-10-21 23:00:00 10.2 9 Sudoeste 12 Sudoeste 0 -- -- 79
2020-10-21 22:00:00 9.5 6 Sur 14 Sur 0 -- -- 78
2020-10-21 21:00:00 11.1 10 Sudoeste 16 Sur 0 -- -- 62
2020-10-21 20:00:00 11.9 12 Sur 29 Sur 0 -- -- 58
2020-10-21 19:00:00 13 14 Sur 34 Sudoeste 0 -- -- 52
2020-10-21 18:00:00 14.5 19 Sur 29 Sur 0 -- -- 57
2020-10-21 17:00:00 14.7 19 Sur 31 Sudeste 0 -- -- 57
2020-10-21 16:00:00 15.1 17 Sur 35 Sur 0 -- -- 56
2020-10-21 15:00:00 15.6 21 Sur 45 Sur 0 -- -- 54
2020-10-21 14:00:00 15.8 24 Sur 42 Sur 0 -- -- 52
2020-10-21 13:00:00 16 16 Sur 39 Sur 0 -- -- 48
2020-10-21 12:00:00 15.5 19 Sur 44 Sur 0 -- -- 49
2020-10-21 11:00:00 13.5 22 Sur 46 Sur 0 -- -- 55
2020-10-21 10:00:00 11.2 22 Sudoeste 37 Sudoeste 0 -- -- 60
2020-10-21 09:00:00 10.3 12 Sudoeste 31 Sur 0 -- -- 75
2020-10-21 08:00:00 11.3 14 Sur 41 Sur 0 -- -- 70
2020-10-21 07:00:00 11.8 24 Sur 46 Sur 0 -- -- 73
2020-10-21 06:00:00 12 17 Sur 38 Sur 0 -- -- 72
2020-10-21 05:00:00 11.4 18 Sur 36 Sur 0 -- -- 67
2020-10-21 04:00:00 10.1 20 Sur 37 Sur 0 -- -- 74
2020-10-21 03:00:00 10.5 18 Sur 42 Sudeste 0 -- -- 69
2020-10-21 02:00:00 10.6 24 Sudeste 40 Sudeste 0 -- -- 69
2020-10-21 01:00:00 9 20 Sudeste 36 Sudeste 0 -- -- 93
2020-10-21 00:00:00 9.1 18 Sudeste 37 Sudeste 0 -- -- 95
2020-10-20 23:00:00 9.4 19 Sudeste 35 Sudeste 0 -- -- 93
2020-10-20 22:00:00 9.5 11 Sudeste 23 Sudeste 0 -- -- 96
2020-10-20 21:00:00 9.3 15 Sudeste 22 Sudeste 0 -- -- 95
2020-10-20 20:00:00 8.7 12 Sudeste 33 Este 0 -- -- 94
2020-10-20 19:00:00 9.7 18 Este 29 Este 0 -- -- 93
2020-10-20 18:00:00 11.6 13 Este 28 Sudeste 0 -- -- 84
2020-10-20 17:00:00 12.9 17 Sudeste 28 Sur 0 -- -- 72
2020-10-20 16:00:00 13.9 14 Sur 28 Sur 0 -- -- 65
2020-10-20 15:00:00 12.7 20 Sur 40 Sur 0 -- -- 63
2020-10-20 14:00:00 11.8 28 Sur 45 Sur 0 -- -- 75
2020-10-20 13:00:00 11.6 23 Sur 40 Sur 0 -- -- 71
2020-10-20 12:00:00 11.2 22 Sur 41 Sur 0 -- -- 57
2020-10-20 11:00:00 11.6 25 Sur 40 Sur 0 -- -- 49
2020-10-20 10:00:00 11.2 24 Sur 43 Sur 0 -- -- 51
2020-10-20 09:00:00 9.3 21 Sur 35 Sur 0 -- -- 66
2020-10-20 08:00:00 8.8 21 Sur 34 Sur 0 -- -- 77
2020-10-20 07:00:00 7.5 10 Sur 21 Sur 0 -- -- 92
2020-10-20 06:00:00 9.6 14 Sur 30 Sur 0 -- -- 71
2020-10-20 05:00:00 9.3 12 Sur 30 Sudoeste 0 -- -- 72
2020-10-20 04:00:00 9.8 13 Sudoeste 24 Sudoeste 0 -- -- 74
2020-10-20 03:00:00 10 16 Sudoeste 34 Sur 0 -- -- 70
2020-10-20 02:00:00 11.2 21 Sur 33 Sur 0 -- -- 61
2020-10-20 01:00:00 11.6 17 Sudoeste 31 Sur 0 -- -- 55
2020-10-20 00:00:00 11.5 15 Sudoeste 28 Sudoeste 0 -- -- 54
2020-10-19 23:00:00 11.7 16 Sudoeste 25 Sudoeste 0 -- -- 57
2020-10-19 22:00:00 10.9 12 Sudoeste 22 Sudoeste 0 -- -- 63
2020-10-19 21:00:00 10 21 Sudoeste 23 Sudoeste 0 -- -- 75
2020-10-19 20:00:00 9.8 15 Sudoeste 21 Sur 0 -- -- 78
2020-10-19 19:00:00 10.1 12 Sur 25 Sur 0 -- -- 80
2020-10-19 18:00:00 12.5 15 Sur 30 Sur 0 -- -- 70
2020-10-19 17:00:00 14.1 21 Sur 31 Sur 0 -- -- 59
2020-10-19 16:00:00 15 19 Sudeste 34 Sur 0 -- -- 53
2020-10-19 15:00:00 15.2 19 Sudeste 35 Sur 0 -- -- 48
2020-10-19 14:00:00 15.9 20 Sudeste 41 Sudeste 0 -- -- 33
2020-10-19 13:00:00 14.6 20 Sur 32 Sur 0 -- -- 35
2020-10-19 12:00:00 13.3 18 Sudeste 29 Sur 0 -- -- 44
2020-10-19 11:00:00 12.1 21 Sur 27 Sudeste 0 -- -- 58
2020-10-19 10:00:00 11.3 14 Sudeste 23 Sur 0 -- -- 61
2020-10-19 09:00:00 8.7 15 Sudoeste 26 Sudoeste 0 -- -- 57
2020-10-19 08:00:00 8.2 18 Sudoeste 26 Sur 0 -- -- 49
2020-10-19 07:00:00 7.2 7 Sudoeste 17 Sur 0 -- -- 43
2020-10-19 06:00:00 7.5 12 Sudoeste 19 Sudoeste 0 -- -- 42
2020-10-19 05:00:00 7.3 12 Sudoeste 19 Sudoeste 0 -- -- 47
2020-10-19 04:00:00 7.5 12 Sudoeste 17 Sudoeste 0 -- -- 54
2020-10-19 03:00:00 7.8 15 Sudoeste 18 Sudoeste 0 -- -- 53
2020-10-19 02:00:00 8.6 15 Sudoeste 17 Sudoeste 0 -- -- 52
2020-10-19 01:00:00 7.8 13 Sudoeste 15 Sudoeste 0 -- -- 60
2020-10-19 00:00:00 7.8 3 Oeste 11 Sudoeste 0 -- -- 62
2020-10-18 23:00:00 7.1 3 Oeste 13 Sudoeste 0 -- -- 68
2020-10-18 22:00:00 7.5 11 Sudoeste 14 Oeste 0 -- -- 76
2020-10-18 21:00:00 7.7 4 Sudoeste 11 Oeste 0 -- -- 81
2020-10-18 20:00:00 9.1 9 Sudoeste 11 Sur 0 -- -- 75
2020-10-18 19:00:00 10.8 8 Sudeste 18 Sudeste 0 -- -- 67
2020-10-18 18:00:00 13.2 8 Sudeste 19 Sudeste 0 -- -- 51
2020-10-18 17:00:00 14.7 9 Este 24 Nordeste 0 -- -- 46
2020-10-18 16:00:00 16.2 5 Sudeste 21 Sur 0 -- -- 34
2020-10-18 15:00:00 15.8 12 Sur 23 Sur 0 -- -- 34
2020-10-18 14:00:00 15.9 14 Este 26 Este 0 -- -- 33
2020-10-18 13:00:00 14.8 8 Sudeste 19 Sudeste 0 -- -- 33
2020-10-18 12:00:00 13.9 7 Sudeste 19 Sudeste 0 -- -- 32
2020-10-18 11:00:00 12 12 Sur 17 Sur 0 -- -- 38
2020-10-18 10:00:00 10.1 4 Nordeste 8 Sur 0 -- -- 44
2020-10-18 09:00:00 7.4 8 Sudoeste 20 Sudoeste 0 -- -- 47
2020-10-18 08:00:00 5.3 6 Sudoeste 19 Sudoeste 0 -- -- 57
2020-10-18 07:00:00 4.5 15 Oeste 20 Sudoeste 0 -- -- 63
2020-10-18 06:00:00 4.6 2 Sudoeste 12 Oeste 0 -- -- 62
2020-10-18 05:00:00 5.3 3 Este 19 Noroeste 0 -- -- 62
2020-10-18 04:00:00 6.8 9 Oeste 35 Oeste 0 -- -- 57
2020-10-18 03:00:00 7.3 28 Oeste 36 Oeste 0 -- -- 55
2020-10-18 02:00:00 7.3 18 Oeste 27 Oeste 0 -- -- 55
2020-10-18 01:00:00 4.8 5 Oeste 24 Oeste 0 -- -- 64
2020-10-18 00:00:00 6.9 12 Oeste 18 Oeste 0 -- -- 58
2020-10-17 23:00:00 5.4 0 Calma 9 Oeste 0 -- -- 58
2020-10-17 22:00:00 5 7 Oeste 13 Noroeste 0 -- -- 57
2020-10-17 21:00:00 5.6 11 Oeste 17 Oeste 0 -- -- 53
2020-10-17 20:00:00 7.5 14 Oeste 16 Oeste 0 -- -- 46
2020-10-17 19:00:00 10.2 12 Oeste 17 Oeste 0 -- -- 38
2020-10-17 18:00:00 12.2 10 Oeste 22 Oeste 0 -- -- 33
2020-10-17 17:00:00 12.9 13 Noroeste 23 Oeste 0 -- -- 32
2020-10-17 16:00:00 13.1 12 Noroeste 24 Oeste 0 -- -- 33
2020-10-17 15:00:00 13.4 15 Noroeste 27 Noroeste 0 -- -- 33
2020-10-17 14:00:00 13.1 13 Noroeste 28 Oeste 0 -- -- 32
2020-10-17 13:00:00 11.6 18 Oeste 28 Oeste 0 -- -- 32
2020-10-17 12:00:00 11.2 14 Noroeste 26 Noroeste 0 -- -- 26
2020-10-17 11:00:00 9.2 3 Nordeste 9 Nordeste 0 -- -- 45
2020-10-17 10:00:00 6.8 3 Este 14 Oeste 0 -- -- 61
2020-10-17 09:00:00 4.5 8 Oeste 19 Oeste 0 -- -- 67
2020-10-17 08:00:00 1.9 5 Sur 12 Sudoeste 0 -- -- 79
2020-10-17 07:00:00 1.2 0 Calma 6 Norte 0 -- -- 81
2020-10-17 06:00:00 1.6 3 Norte 8 Sudoeste 0 -- -- 81
2020-10-17 05:00:00 1.8 2 Oeste 21 Oeste 0 -- -- 79
2020-10-17 04:00:00 0.4 0 Calma 17 Oeste 0 -- -- 84
2020-10-17 03:00:00 1.5 13 Oeste 17 Oeste 0 -- -- 79
2020-10-17 02:00:00 0.7 9 Oeste 17 Oeste 0 -- -- 80
2020-10-17 01:00:00 1 10 Sudoeste 13 Oeste 0 -- -- 78
2020-10-17 00:00:00 1.8 11 Sudoeste 14 Sudoeste 0 -- -- 76
2020-10-16 23:00:00 1.8 10 Sudoeste 13 Sudoeste 0 -- -- 75
2020-10-16 22:00:00 1.1 6 Sudoeste 9 Sudoeste 0 -- -- 78
2020-10-16 21:00:00 3 4 Sur 9 Sudoeste 0 -- -- 70
2020-10-16 20:00:00 4.5 4 Sur 12 Este 0 -- -- 65
2020-10-16 19:00:00 7.3 7 Este 19 Este 0 -- -- 54
2020-10-16 18:00:00 10.4 8 Nordeste 23 Nordeste 0 -- -- 44
2020-10-16 17:00:00 11.9 7 Norte 20 Este 0 -- -- 40
2020-10-16 16:00:00 11.4 12 Nordeste 21 Nordeste 0 -- -- 41
2020-10-16 15:00:00 11.4 7 Sudeste 27 Este 0 -- -- 38
2020-10-16 14:00:00 11.2 10 Nordeste 20 Este 0 -- -- 39
2020-10-16 13:00:00 10.5 6 Norte 21 Noroeste 0 -- -- 42
2020-10-16 12:00:00 7.3 12 Noroeste 33 Noroeste 0 -- -- 47
2020-10-16 11:00:00 4.8 13 Norte 42 Oeste 0 -- -- 55
2020-10-16 10:00:00 2.4 17 Oeste 37 Oeste 0 -- -- 69
2020-10-16 09:00:00 0.4 26 Oeste 59 Oeste 0 -- -- 82
2020-10-16 08:00:00 0 50 Oeste 69 Oeste 0 -- -- 83
2020-10-16 07:00:00 0.3 44 Oeste 69 Oeste 0 -- -- 79
2020-10-16 06:00:00 0.1 52 Oeste 71 Oeste 0 -- -- 81
2020-10-16 05:00:00 -0.3 56 Oeste 72 Oeste 0 -- -- 81
2020-10-16 04:00:00 0.2 55 Oeste 73 Oeste 0 -- -- 70
2020-10-16 03:00:00 0.2 50 Oeste 66 Oeste 0 -- -- 67
2020-10-16 02:00:00 0.8 42 Noroeste 58 Oeste 0 -- -- 68
2020-10-16 01:00:00 1.8 46 Oeste 71 Oeste 0 -- -- 63
2020-10-16 00:00:00 1.3 45 Oeste 67 Oeste 0 -- -- 68
2020-10-15 23:00:00 1.3 12 Noroeste 37 Oeste 0 -- -- 73
2020-10-15 22:00:00 2.3 28 Oeste 46 Oeste 0 -- -- 71
2020-10-15 21:00:00 3 22 Oeste 39 Noroeste 0 -- -- 77
2020-10-15 20:00:00 4 6 Noroeste 22 Noroeste 0 -- -- 75
2020-10-15 19:00:00 5.1 12 Noroeste 39 Oeste 0 -- -- 66
2020-10-15 18:00:00 6.2 26 Oeste 41 Oeste 0 -- -- 58
2020-10-15 17:00:00 6.9 33 Oeste 55 Oeste 0 -- -- 55
2020-10-15 16:00:00 7.1 31 Oeste 57 Oeste 0 -- -- 54
2020-10-15 15:00:00 6.9 32 Oeste 54 Oeste 0 -- -- 56
2020-10-15 14:00:00 7.3 25 Noroeste 57 Noroeste 0 -- -- 54
2020-10-15 13:00:00 6.6 32 Noroeste 58 Oeste 0 -- -- 55
2020-10-15 12:00:00 5.3 44 Oeste 68 Oeste 0 -- -- 60
2020-10-15 11:00:00 3.7 30 Noroeste 55 Oeste 0 -- -- 66
2020-10-15 10:00:00 2.5 32 Noroeste 53 Oeste 0 -- -- 66
2020-10-15 09:00:00 0.8 29 Noroeste 53 Noroeste 0 -- -- 76
2020-10-15 08:00:00 0.7 37 Oeste 56 Oeste 0 -- -- 77
2020-10-15 07:00:00 0.5 22 Noroeste 54 Noroeste 0 -- -- 78
2020-10-15 06:00:00 0.6 40 Oeste 64 Oeste 0 -- -- 78
2020-10-15 05:00:00 1.1 46 Oeste 64 Oeste 0 -- -- 72
2020-10-15 04:00:00 1.1 42 Oeste 60 Oeste 0 -- -- 73
2020-10-15 03:00:00 1.1 36 Oeste 57 Oeste 0 -- -- 77
2020-10-15 02:00:00 1.7 36 Oeste 68 Oeste 0 -- -- 70
2020-10-15 01:00:00 1.7 52 Oeste 73 Noroeste 0 -- -- 81
2020-10-15 00:00:00 2.2 35 Oeste 60 Noroeste 0 -- -- 80
2020-10-14 23:00:00 3 38 Oeste 66 Oeste 0 -- -- 78
2020-10-14 22:00:00 3.6 35 Oeste 64 Noroeste 0 -- -- 78
2020-10-14 21:00:00 4 34 Oeste 51 Oeste 0 -- -- 77
2020-10-14 20:00:00 4.3 26 Oeste 43 Noroeste 0 -- -- 77
2020-10-14 19:00:00 5.4 19 Oeste 40 Oeste 0 -- -- 68
2020-10-14 18:00:00 7.3 23 Noroeste 46 Oeste 0 -- -- 55
2020-10-14 17:00:00 7.3 19 Noroeste 45 Oeste 0 -- -- 59
2020-10-14 16:00:00 7.7 31 Oeste 43 Oeste 0 -- -- 54
2020-10-14 15:00:00 8.3 22 Oeste 46 Noroeste 0 -- -- 54
2020-10-14 14:00:00 7.8 32 Oeste 48 Oeste 0 -- -- 56
2020-10-14 13:00:00 7.2 24 Oeste 41 Oeste 0 -- -- 62
2020-10-14 12:00:00 6.1 20 Noroeste 35 Noroeste 0 -- -- 68
2020-10-14 11:00:00 4.9 8 Noroeste 34 Oeste 0 -- -- 80
2020-10-14 10:00:00 4.7 22 Oeste 38 Oeste 0 -- -- 83
2020-10-14 09:00:00 3.2 16 Oeste 36 Noroeste 0 -- -- 96
2020-10-14 08:00:00 3.3 23 Oeste 37 Oeste 0 -- -- 97
2020-10-14 07:00:00 3.7 19 Oeste 34 Noroeste 0 -- -- 96
2020-10-14 06:00:00 4.8 24 Noroeste 34 Noroeste 0 -- -- 92
2020-10-14 05:00:00 5.7 0 Calma 14 Norte 0 -- -- 89
2020-10-14 04:00:00 6.1 5 Norte 10 Sur 0 -- -- 90
2020-10-14 03:00:00 7.5 6 Sur 12 Sudoeste 0 -- -- 84
2020-10-14 02:00:00 8 5 Oeste 9 Sur 0 -- -- 83
2020-10-14 01:00:00 8 4 Sur 13 Sur 0 -- -- 79
2020-10-14 00:00:00 8 9 Sur 12 Sur 0 -- -- 79
2020-10-13 23:00:00 7.3 9 Oeste 13 Oeste 0 -- -- 81
2020-10-13 22:00:00 7.7 8 Oeste 12 Sudoeste 0 -- -- 79
2020-10-13 21:00:00 7.6 5 Oeste 9 Sudoeste 0 -- -- 76
2020-10-13 20:00:00 9.1 5 Sudoeste 19 Oeste 0 -- -- 69
2020-10-13 19:00:00 11.5 11 Oeste 26 Sudoeste 0 -- -- 62
2020-10-13 18:00:00 12.5 14 Oeste 30 Noroeste 0 -- -- 62
2020-10-13 17:00:00 14.4 16 Oeste 36 Noroeste 0 -- -- 55
2020-10-13 16:00:00 14.1 23 Oeste 43 Oeste 0 -- -- 55
2020-10-13 15:00:00 12.7 22 Noroeste 44 Oeste 0 -- -- 58
2020-10-13 14:00:00 13.1 24 Oeste 49 Oeste 0 -- -- 58
2020-10-13 13:00:00 12.3 28 Oeste 51 Oeste 0 -- -- 63
2020-10-13 12:00:00 11.3 27 Noroeste 60 Oeste 0 -- -- 66
2020-10-13 11:00:00 9.5 31 Noroeste 64 Noroeste 0 -- -- 75
2020-10-13 10:00:00 8.3 31 Noroeste 56 Noroeste 0 -- -- 83
2020-10-13 09:00:00 7.3 28 Noroeste 55 Noroeste 0 -- -- 88
2020-10-13 08:00:00 7.5 29 Oeste 56 Noroeste 0 -- -- 81
2020-10-13 07:00:00 7.7 39 Oeste 60 Oeste 0 -- -- 80
2020-10-13 06:00:00 7.6 32 Oeste 58 Oeste 0 -- -- 79
2020-10-13 05:00:00 7.2 28 Oeste 57 Oeste 0 -- -- 81
2020-10-13 04:00:00 7.8 41 Oeste 61 Oeste 0 -- -- 81
2020-10-13 03:00:00 8.1 37 Oeste 57 Oeste 0 -- -- 82
2020-10-13 02:00:00 7.3 35 Noroeste 59 Oeste 0 -- -- 84
2020-10-13 01:00:00 -- -- -- -- -- -- -- -- --
2020-10-13 00:00:00 7.1 41 Noroeste 77 Oeste 0 -- -- 72
2020-10-12 23:00:00 7.2 49 Oeste 71 Oeste 0 -- -- 54
2020-10-12 22:00:00 7.9 42 Noroeste 65 Oeste 0 -- -- 43
2020-10-12 21:00:00 7.1 36 Oeste 57 Oeste 0 -- -- 52
2020-10-12 20:00:00 6 20 Oeste 32 Oeste 0 -- -- 73
2020-10-12 19:00:00 7.2 22 Oeste 33 Oeste 0 -- -- 64
2020-10-12 18:00:00 -- -- -- -- -- -- -- -- --
2020-10-12 17:00:00 9.8 17 Noroeste 28 Oeste 0 -- -- 56
2020-10-12 16:00:00 10.4 14 Noroeste 32 Oeste 0 -- -- 53
2020-10-12 15:00:00 9.5 20 Oeste 60 Oeste 0 -- -- 56
2020-10-12 14:00:00 8.1 43 Oeste 68 Oeste 0 -- -- 58
2020-10-12 13:00:00 7.1 50 Oeste 81 Oeste 0 -- -- 64
2020-10-12 12:00:00 5.8 53 Oeste 74 Oeste 0 -- -- 69
2020-10-12 11:00:00 4.5 53 Oeste 76 Oeste 0 -- -- 77
2020-10-12 10:00:00 3.9 60 Oeste 77 Oeste 0 -- -- 78
2020-10-12 09:00:00 2.8 60 Oeste 82 Oeste 0 -- -- 85
2020-10-12 08:00:00 2.5 52 Oeste 71 Noroeste 0 -- -- 84
2020-10-12 07:00:00 2.3 23 Noroeste 34 Oeste 0 -- -- 85
2020-10-12 06:00:00 2.3 15 Norte 60 Oeste 0 -- -- 85
2020-10-12 05:00:00 2.8 36 Oeste 55 Oeste 0 -- -- 83
2020-10-12 04:00:00 -- -- -- -- -- -- -- -- --
2020-10-12 03:00:00 2.9 8 Este 35 Oeste 0 -- -- 84
2020-10-12 02:00:00 2.7 9 Norte 51 Oeste 0 -- -- 84
2020-10-12 01:00:00 2.6 24 Noroeste 70 Oeste 0 -- -- 84
2020-10-12 00:00:00 3.1 49 Oeste 78 Oeste 0 -- -- 82
2020-10-11 23:00:00 3.3 48 Oeste 82 Oeste 0 -- -- 82
2020-10-11 22:00:00 3.4 41 Oeste 75 Oeste 0 -- -- 80
2020-10-11 21:00:00 -- -- -- -- -- -- -- -- --
2020-10-11 20:00:00 -- -- -- -- -- -- -- -- --
2020-10-11 19:00:00 5.4 34 Oeste 58 Oeste 0 -- -- 66
2020-10-11 18:00:00 7.1 28 Noroeste 53 Oeste 0 -- -- 58
2020-10-11 17:00:00 8.5 26 Oeste 50 Oeste 0 -- -- 52
2020-10-11 16:00:00 9.5 20 Noroeste 49 Noroeste 0 -- -- 50
2020-10-11 15:00:00 9.2 26 Noroeste 53 Noroeste 0 -- -- 52
2020-10-11 14:00:00 8.6 33 Noroeste 55 Noroeste 0 -- -- 53
2020-10-11 13:00:00 7.9 27 Noroeste 53 Noroeste 0 -- -- 55
2020-10-11 12:00:00 6.6 31 Noroeste 55 Noroeste 0 -- -- 56
2020-10-11 11:00:00 5.3 32 Noroeste 54 Oeste 0 -- -- 61
2020-10-11 10:00:00 4 28 Noroeste 49 Oeste 0 -- -- 65
2020-10-11 09:00:00 2.3 27 Noroeste 44 Noroeste 0 -- -- 73
2020-10-11 08:00:00 2.2 34 Noroeste 57 Oeste 0 -- -- 67
2020-10-11 07:00:00 2.4 14 Noroeste 36 Noroeste 0 -- -- 82
2020-10-11 06:00:00 2.5 22 Noroeste 40 Noroeste 0 -- -- 84
2020-10-11 05:00:00 3.2 28 Noroeste 50 Noroeste 0 -- -- 85
2020-10-11 04:00:00 3.4 29 Noroeste 63 Oeste 0 -- -- 84
2020-10-11 03:00:00 3.9 39 Noroeste 64 Oeste 0 -- -- 83
2020-10-11 02:00:00 4.7 46 Oeste 67 Noroeste 0 -- -- 76
2020-10-11 01:00:00 5.4 33 Oeste 53 Oeste 0 -- -- 77
2020-10-11 00:00:00 6.5 31 Oeste 43 Oeste 0 -- -- 88
2020-10-10 23:00:00 6.7 21 Oeste 35 Oeste 0 -- -- 89
2020-10-10 22:00:00 7.7 27 Oeste 35 Oeste 0 -- -- 85
2020-10-10 21:00:00 8.9 20 Oeste 34 Oeste 0 -- -- 80
2020-10-10 20:00:00 9.3 21 Oeste 32 Oeste 0 -- -- 82
2020-10-10 19:00:00 10.7 17 Noroeste 31 Noroeste 0 -- -- 72
2020-10-10 18:00:00 13.1 14 Noroeste 30 Noroeste 0 -- -- 66
2020-10-10 17:00:00 13.5 20 Noroeste 29 Norte 0 -- -- 68
2020-10-10 16:00:00 14.7 12 Noroeste 30 Noroeste 0 -- -- 68
2020-10-10 15:00:00 13.9 12 Norte 17 Norte 0 -- -- 72
2020-10-10 14:00:00 13.2 9 Noroeste 23 Noroeste 0 -- -- 78
2020-10-10 13:00:00 16.1 10 Norte 21 Norte 0 -- -- 69
2020-10-10 12:00:00 13.3 12 Noroeste 23 Noroeste 0 -- -- 80
2020-10-10 11:00:00 13.9 13 Nordeste 19 Norte 0 -- -- 79
2020-10-10 10:00:00 10.6 9 Oeste 21 Noroeste 0 -- -- 90
2020-10-10 09:00:00 8.8 5 Nordeste 9 Norte 0 -- -- 94
2020-10-10 08:00:00 6.8 2 Oeste 13 Sudoeste 0 -- -- 95
2020-10-10 07:00:00 7.6 5 Oeste 9 Oeste 0 -- -- 95
2020-10-10 06:00:00 7.8 0 Calma 9 Sudoeste 0 -- -- 97
2020-10-10 05:00:00 9.3 7 Oeste 10 Oeste 0 -- -- 96
2020-10-10 04:00:00 10 4 Oeste 18 Noroeste 0 -- -- 94
2020-10-10 03:00:00 10.3 8 Oeste 14 Oeste 0 -- -- 95
2020-10-10 02:00:00 11.2 4 Sudeste 22 Noroeste 0 -- -- 87
2020-10-10 01:00:00 11.3 2 Noroeste 13 Sur 0 -- -- 84
2020-10-10 00:00:00 11.3 8 Sudoeste 10 Sudoeste 0 -- -- 88
2020-10-09 23:00:00 11.9 4 Sudoeste 12 Sudoeste 0 -- -- 89
2020-10-09 22:00:00 11.8 6 Sudoeste 9 Sudoeste 0 -- -- 91
2020-10-09 21:00:00 12.8 9 Sudoeste 11 Sudoeste 0 -- -- 92
2020-10-09 20:00:00 12.8 3 Sudoeste 9 Este 0 -- -- 90
2020-10-09 19:00:00 15.4 6 Nordeste 14 Este 0 -- -- 85
2020-10-09 18:00:00 17.3 8 Este 17 Nordeste 0 -- -- 75
2020-10-09 17:00:00 17.6 8 Este 20 Este 0 -- -- 68
2020-10-09 16:00:00 17.5 11 Este 22 Este 0 -- -- 66
2020-10-09 15:00:00 20.7 8 Este 30 Este 0 -- -- 52
2020-10-09 14:00:00 21.6 14 Este 25 Nordeste 0 -- -- 42
2020-10-09 13:00:00 21.4 7 Este 21 Oeste 0 -- -- 30
2020-10-09 12:00:00 20.1 7 Noroeste 22 Oeste 0 -- -- 32
2020-10-09 11:00:00 18.5 15 Oeste 28 Oeste 0 -- -- 44
2020-10-09 10:00:00 16.9 16 Oeste 25 Oeste 0 -- -- 47
2020-10-09 09:00:00 14.2 17 Oeste 27 Oeste 0 -- -- 56
2020-10-09 08:00:00 11.7 22 Oeste 27 Oeste 0 -- -- 66
2020-10-09 07:00:00 12.7 25 Oeste 27 Oeste 0 -- -- 59
2020-10-09 06:00:00 12.6 19 Oeste 22 Oeste 0 -- -- 59
2020-10-09 05:00:00 12.6 19 Oeste 25 Oeste 0 -- -- 61
2020-10-09 04:00:00 12.9 23 Oeste 26 Oeste 0 -- -- 64
2020-10-09 03:00:00 12.8 23 Oeste 31 Oeste 0 -- -- 64
2020-10-09 02:00:00 12.6 23 Oeste 26 Oeste 0 -- -- 64
2020-10-09 01:00:00 12.9 19 Oeste 29 Oeste 0 -- -- 65
2020-10-09 00:00:00 12.9 21 Oeste 28 Oeste 0 -- -- 70
2020-10-08 23:00:00 12.1 13 Sudoeste 23 Oeste 0 -- -- 82
2020-10-08 22:00:00 12.4 11 Sudoeste 18 Sur 0 -- -- 91
2020-10-08 21:00:00 12.7 9 Sur 17 Sur 0 -- -- 98
2020-10-08 20:00:00 13.3 7 Sudeste 19 Sur 0 -- -- 95
2020-10-08 19:00:00 15.3 12 Sur 25 Sudeste 0 -- -- 85
2020-10-08 18:00:00 17.7 17 Sudeste 26 Sudeste 0 -- -- 74
2020-10-08 17:00:00 19.7 10 Nordeste 27 Nordeste 0 -- -- 64
2020-10-08 16:00:00 20.9 17 Nordeste 35 Sur 0 -- -- 59
2020-10-08 15:00:00 20.9 22 Sudeste 40 Sudeste 0 -- -- 49
2020-10-08 14:00:00 20.4 24 Sur 36 Sur 0 -- -- 51
2020-10-08 13:00:00 19.7 20 Sur 32 Sur 0 -- -- 54
2020-10-08 12:00:00 18.8 14 Sur 22 Sur 0 -- -- 57
2020-10-08 11:00:00 17 14 Sudoeste 23 Sudoeste 0 -- -- 62
2020-10-08 10:00:00 14.6 21 Sudoeste 28 Sudoeste 0 -- -- 67
2020-10-08 09:00:00 11.5 9 Sur 18 Sudoeste 0 -- -- 77
2020-10-08 08:00:00 9.1 3 Sudoeste 13 Sudoeste 0 -- -- 82
2020-10-08 07:00:00 10.1 6 Sudeste 20 Sudoeste 0 -- -- 80
2020-10-08 06:00:00 10.3 17 Sudoeste 20 Sudoeste 0 -- -- 79
2020-10-08 05:00:00 10.4 15 Sudoeste 23 Oeste 0 -- -- 78
2020-10-08 04:00:00 9.9 8 Sudoeste 16 Oeste 0 -- -- 81
2020-10-08 03:00:00 9.8 13 Sudoeste 21 Oeste 0 -- -- 80
2020-10-08 02:00:00 10.6 13 Sudoeste 17 Sudoeste 0 -- -- 76
2020-10-08 01:00:00 10.6 13 Sudoeste 19 Sudoeste 0 -- -- 78
2020-10-08 00:00:00 10.9 13 Sudoeste 16 Sudoeste 0 -- -- 79
2020-10-07 23:00:00 11.3 12 Sudoeste 15 Sudoeste 0 -- -- 80
2020-10-07 22:00:00 10.6 8 Sudoeste 9 Sudoeste 0 -- -- 81
2020-10-07 21:00:00 13.2 3 Sur 22 Oeste 0 -- -- 73
2020-10-07 20:00:00 13.7 15 Oeste 17 Oeste 0 -- -- 69
2020-10-07 19:00:00 16.3 9 Oeste 19 Oeste 0 -- -- 62
2020-10-07 18:00:00 17.7 13 Noroeste 23 Noroeste 0 -- -- 57
2020-10-07 17:00:00 18.2 15 Noroeste 24 Oeste 0 -- -- 59
2020-10-07 16:00:00 18.6 14 Noroeste 27 Norte 0 -- -- 56
2020-10-07 15:00:00 18.8 13 Noroeste 36 Noroeste 0 -- -- 53
2020-10-07 14:00:00 17.1 20 Noroeste 67 Noroeste 0 -- -- 61
2020-10-07 13:00:00 15.2 43 Oeste 68 Oeste 0 -- -- 66
2020-10-07 12:00:00 15.6 28 Noroeste 58 Oeste 0 -- -- 63
2020-10-07 11:00:00 14.5 31 Noroeste 53 Oeste 0 -- -- 63
2020-10-07 10:00:00 14.2 34 Oeste 62 Noroeste 0 -- -- 63
2020-10-07 09:00:00 11.8 35 Noroeste 49 Oeste 0 -- -- 65
2020-10-07 08:00:00 11.8 26 Noroeste 62 Oeste 0 -- -- 67
2020-10-07 07:00:00 12.4 36 Oeste 55 Oeste 0 -- -- 61
2020-10-07 06:00:00 12.3 31 Noroeste 44 Oeste 0 -- -- 71
2020-10-07 05:00:00 11.9 25 Oeste 52 Oeste 0 -- -- 80
2020-10-07 04:00:00 12.8 32 Oeste 50 Oeste 0 -- -- 75
2020-10-07 03:00:00 12.7 24 Oeste 40 Noroeste 0 -- -- 73
2020-10-07 02:00:00 12.7 10 Oeste 41 Noroeste 0 -- -- 71
2020-10-07 01:00:00 12.8 17 Noroeste 39 Oeste 0 -- -- 71
2020-10-07 00:00:00 12.2 18 Oeste 31 Oeste 0 -- -- 74
2020-10-06 23:00:00 12 14 Noroeste 22 Noroeste 0 -- -- 83
2020-10-06 22:00:00 10.7 4 Oeste 10 Sudoeste 0 -- -- 85
2020-10-06 21:00:00 11.8 6 Oeste 16 Oeste 0 -- -- 80
2020-10-06 20:00:00 14.2 12 Noroeste 22 Noroeste 0 -- -- 71
2020-10-06 19:00:00 15.7 10 Sudoeste 32 Sudoeste 0 -- -- 64
2020-10-06 18:00:00 16.5 15 Oeste 43 Oeste 0 -- -- 61
2020-10-06 17:00:00 17.7 19 Noroeste 35 Oeste 0 -- -- 57
2020-10-06 16:00:00 15.8 15 Oeste 29 Noroeste 0 -- -- 62
2020-10-06 15:00:00 17.5 18 Noroeste 30 Sudoeste 0 -- -- 56
2020-10-06 14:00:00 18.4 18 Oeste 29 Oeste 0 -- -- 55
2020-10-06 13:00:00 17.4 14 Oeste 31 Sudoeste 0 -- -- 57
2020-10-06 12:00:00 16 16 Noroeste 32 Oeste 0 -- -- 62
2020-10-06 11:00:00 13.8 21 Oeste 41 Oeste 0 -- -- 68
2020-10-06 10:00:00 12.2 20 Oeste 36 Noroeste 0 -- -- 73
2020-10-06 09:00:00 10.7 26 Oeste 48 Oeste 0 -- -- 76
2020-10-06 08:00:00 9.9 32 Oeste 48 Oeste 0 -- -- 79
2020-10-06 07:00:00 9.1 9 Noroeste 30 Oeste 0 -- -- 76
2020-10-06 06:00:00 7 5 Noroeste 27 Oeste 0 -- -- 71
2020-10-06 05:00:00 8.2 10 Oeste 37 Oeste 0 -- -- 65
2020-10-06 04:00:00 8.1 32 Oeste 47 Oeste 0 -- -- 68
2020-10-06 03:00:00 7.7 32 Oeste 44 Oeste 0 -- -- 64
2020-10-06 02:00:00 7.1 22 Oeste 39 Oeste 0 -- -- 66
2020-10-06 01:00:00 6.2 10 Sudoeste 19 Sudoeste 0 -- -- 71
2020-10-06 00:00:00 5.6 10 Oeste 17 Oeste 0 -- -- 74
2020-10-05 23:00:00 5.4 4 Sur 13 Oeste 0 -- -- 72
2020-10-05 22:00:00 4.2 7 Sudoeste 12 Sudoeste 0 -- -- 76
2020-10-05 21:00:00 5 6 Sudoeste 17 Oeste 0 -- -- 72
2020-10-05 20:00:00 7.8 10 Oeste 23 Noroeste 0 -- -- 60
2020-10-05 19:00:00 9.5 14 Oeste 27 Oeste 0 -- -- 56
2020-10-05 18:00:00 10.5 18 Oeste 33 Oeste 0 -- -- 50
2020-10-05 17:00:00 11.8 13 Oeste 31 Oeste 0 -- -- 44
2020-10-05 16:00:00 11.9 11 Oeste 31 Noroeste 0 -- -- 48
2020-10-05 15:00:00 11.7 18 Oeste 36 Oeste 0 -- -- 47
2020-10-05 14:00:00 10.7 23 Oeste 41 Oeste 0 -- -- 52
2020-10-05 13:00:00 9.7 30 Oeste 44 Oeste 0 -- -- 58
2020-10-05 12:00:00 8 38 Oeste 56 Oeste 0 -- -- 62
2020-10-05 11:00:00 6.9 21 Noroeste 46 Noroeste 0 -- -- 67
2020-10-05 10:00:00 5.6 36 Oeste 49 Oeste 0 -- -- 70
2020-10-05 09:00:00 4.6 31 Oeste 49 Oeste 0 -- -- 77
2020-10-05 08:00:00 4.5 30 Oeste 46 Oeste 0 -- -- 80
2020-10-05 07:00:00 4.3 26 Oeste 41 Oeste 0 -- -- 83
2020-10-05 06:00:00 4.6 17 Oeste 38 Oeste 0 -- -- 82
2020-10-05 05:00:00 4.3 14 Oeste 30 Oeste 0 -- -- 81
2020-10-05 04:00:00 5 15 Oeste 27 Oeste 0 -- -- 79
2020-10-05 03:00:00 4.8 10 Oeste 28 Oeste 0 -- -- 79
2020-10-05 02:00:00 5.4 11 Oeste 33 Oeste 0 -- -- 75
2020-10-05 01:00:00 4.4 8 Sudoeste 17 Sudoeste 0 -- -- 77
2020-10-05 00:00:00 5.7 7 Sudoeste 30 Oeste 0 -- -- 72
2020-10-04 23:00:00 6.6 14 Oeste 30 Oeste 0 -- -- 69
2020-10-04 22:00:00 6.2 9 Sudoeste 19 Oeste 0 -- -- 74
2020-10-04 21:00:00 5.7 8 Sudoeste 14 Sudoeste 0 -- -- 76
2020-10-04 20:00:00 6.6 5 Oeste 30 Oeste 0 -- -- 72
2020-10-04 19:00:00 8.9 20 Oeste 58 Oeste 0 -- -- 55
2020-10-04 18:00:00 10 27 Oeste 57 Oeste 0 -- -- 51
2020-10-04 17:00:00 9.7 24 Oeste 60 Sudoeste 0 -- -- 53
2020-10-04 16:00:00 10.4 27 Oeste 46 Oeste 0 -- -- 60
2020-10-04 15:00:00 9.9 29 Oeste 50 Oeste 0 -- -- 65
2020-10-04 14:00:00 10.2 25 Oeste 50 Sudoeste 0 -- -- 62
2020-10-04 13:00:00 10.5 28 Oeste 54 Oeste 0 -- -- 59
2020-10-04 12:00:00 9.9 27 Oeste 51 Oeste 0 -- -- 64
2020-10-04 11:00:00 9.1 20 Oeste 41 Oeste 0 -- -- 62
2020-10-04 10:00:00 7 14 Noroeste 37 Oeste 0 -- -- 63
2020-10-04 09:00:00 4.3 11 Sudoeste 21 Oeste 0 -- -- 74
2020-10-04 08:00:00 2.2 5 Sudoeste 14 Sudoeste 0 -- -- 80
2020-10-04 07:00:00 0.4 0 Calma 10 Sudoeste 0 -- -- 85
2020-10-04 06:00:00 0.3 6 Sudoeste 10 Sudoeste 0 -- -- 84
2020-10-04 05:00:00 2.3 5 Sur 11 Oeste 0 -- -- 74
2020-10-04 04:00:00 3 9 Oeste 18 Sudoeste 0 -- -- 72
2020-10-04 03:00:00 4.2 14 Oeste 32 Oeste 0 -- -- 67
2020-10-04 02:00:00 4.6 16 Oeste 24 Oeste 0 -- -- 68
2020-10-04 01:00:00 5.6 13 Oeste 22 Oeste 0 -- -- 69
2020-10-04 00:00:00 2.9 5 Sudoeste 8 Sudoeste 0 -- -- 82
2020-10-03 23:00:00 2.3 3 Oeste 9 Sudoeste 0 -- -- 81
2020-10-03 22:00:00 4.2 3 Sur 10 Sudoeste 0 -- -- 73
2020-10-03 21:00:00 3.7 7 Sudoeste 10 Sudoeste 0 -- -- 75
2020-10-03 20:00:00 6.2 2 Sur 19 Oeste 0 -- -- 65
2020-10-03 19:00:00 8.6 5 Sudoeste 33 Oeste 0 -- -- 58
2020-10-03 18:00:00 9.7 21 Oeste 42 Oeste 0 -- -- 54
2020-10-03 17:00:00 10.3 25 Oeste 43 Oeste 0 -- -- 54
2020-10-03 16:00:00 10.2 26 Oeste 44 Oeste 0 -- -- 53
2020-10-03 15:00:00 9.8 26 Oeste 49 Oeste 0 -- -- 55
2020-10-03 14:00:00 8.5 28 Oeste 52 Oeste 0 -- -- 60
2020-10-03 13:00:00 7.7 26 Oeste 48 Sudoeste 0 -- -- 62
2020-10-03 12:00:00 5.9 30 Oeste 62 Oeste 0 -- -- 67
2020-10-03 11:00:00 4.5 29 Oeste 64 Oeste 0 -- -- 72
2020-10-03 10:00:00 3.4 36 Oeste 73 Oeste 0 -- -- 73
2020-10-03 09:00:00 2 40 Oeste 69 Oeste 0 -- -- 78
2020-10-03 08:00:00 1.7 45 Oeste 69 Oeste 0 -- -- 80
2020-10-03 07:00:00 1.7 36 Oeste 63 Noroeste 0 -- -- 81
2020-10-03 06:00:00 1.9 33 Oeste 75 Oeste 0 -- -- 80
2020-10-03 05:00:00 2.5 52 Oeste 82 Oeste 0 -- -- 77
2020-10-03 04:00:00 2.4 55 Oeste 82 Oeste 0 -- -- 76
2020-10-03 03:00:00 2.4 49 Oeste 77 Oeste 0 -- -- 77
2020-10-03 02:00:00 2.4 49 Oeste 78 Oeste 0 -- -- 76
2020-10-03 01:00:00 2.4 37 Oeste 66 Oeste 0 -- -- 76
2020-10-03 00:00:00 2.4 30 Oeste 69 Oeste 0 -- -- 77
2020-10-02 23:00:00 2.5 29 Oeste 55 Oeste 0 -- -- 77
2020-10-02 22:00:00 2.8 31 Oeste 58 Oeste 0 -- -- 75
2020-10-02 21:00:00 2.9 23 Oeste 58 Oeste 0 -- -- 79
2020-10-02 20:00:00 2.7 22 Oeste 64 Oeste 0 -- -- 81
2020-10-02 19:00:00 3.1 23 Oeste 70 Noroeste 0.2 -- -- 81
2020-10-02 18:00:00 1.9 51 Oeste 81 Oeste 0.2 -- -- 91
2020-10-02 17:00:00 2.9 28 Oeste 69 Oeste 0 -- -- 84
2020-10-02 16:00:00 2.5 35 Oeste 62 Noroeste 1.6 -- -- 89
2020-10-02 15:00:00 3.3 40 Oeste 59 Oeste 1.2 -- -- 90
2020-10-02 14:00:00 5.6 37 Oeste 63 Oeste 4.6 -- -- 90
2020-10-02 13:00:00 10.3 25 Sudoeste 54 Sudoeste 0.6 -- -- 92
2020-10-02 12:00:00 10.1 25 Sur 56 Sudoeste 0 -- -- 84
2020-10-02 11:00:00 9.7 27 Sudoeste 57 Sudoeste 0 -- -- 85
2020-10-02 10:00:00 8.4 25 Sur 47 Sudoeste 0 -- -- 88
2020-10-02 09:00:00 8.8 25 Sudoeste 55 Sur 0 -- -- 85
2020-10-02 08:00:00 8.8 22 Sudoeste 46 Sudoeste 0 -- -- 84
2020-10-02 07:00:00 9.1 24 Sudoeste 45 Sudoeste 0 -- -- 79
2020-10-02 06:00:00 9.2 17 Sudoeste 36 Sudoeste 0 -- -- 73
2020-10-02 05:00:00 10.9 13 Sudoeste 37 Sudoeste 0 -- -- 62
2020-10-02 04:00:00 11.7 16 Sudoeste 42 Sudoeste 0 -- -- 58
2020-10-02 03:00:00 11.2 20 Sudoeste 35 Sudoeste 0 -- -- 63
2020-10-02 02:00:00 10.9 19 Sur 48 Sudoeste 0 -- -- 69
2020-10-02 01:00:00 11.2 22 Sudoeste 37 Sudoeste 0 -- -- 64
2020-10-02 00:00:00 11.4 4 Sudoeste 14 Oeste 0 -- -- 64
2020-10-01 23:00:00 10.4 0 Calma 14 Oeste 0 -- -- 64
2020-10-01 22:00:00 11.1 10 Oeste 14 Sur 0 -- -- 59
2020-10-01 21:00:00 12.7 6 Sur 11 Sudoeste 0 -- -- 61
2020-10-01 20:00:00 12.9 3 Oeste 12 Nordeste 0 -- -- 62
2020-10-01 19:00:00 16.2 6 Este 13 Este 0 -- -- 54
2020-10-01 18:00:00 17.2 10 Este 28 Oeste 0 -- -- 51
2020-10-01 17:00:00 19.4 18 Sudoeste 32 Sudoeste 0 -- -- 35
2020-10-01 16:00:00 20 20 Sudoeste 35 Sudoeste 0 -- -- 34
2020-10-01 15:00:00 21.1 10 Sudoeste 31 Sudoeste 0 -- -- 33
2020-10-01 14:00:00 21.5 6 Sudoeste 26 Oeste 0 -- -- 32
2020-10-01 13:00:00 19.6 7 Sudoeste 35 Noroeste 0 -- -- 36
2020-10-01 12:00:00 18.6 19 Sudoeste 41 Oeste 0 -- -- 38
2020-10-01 11:00:00 17.3 4 Oeste 28 Noroeste 0 -- -- 43
2020-10-01 10:00:00 15.9 4 Este 10 Este 0 -- -- 44
2020-10-01 09:00:00 13.5 3 Noroeste 14 Oeste 0 -- -- 50
2020-10-01 08:00:00 9.7 8 Oeste 14 Oeste 0 -- -- 61
2020-10-01 07:00:00 10.5 9 Noroeste 17 Oeste 0 -- -- 60
2020-10-01 06:00:00 12.2 12 Oeste 31 Oeste 0 -- -- 52
2020-10-01 05:00:00 12.8 24 Oeste 37 Oeste 0 -- -- 50
2020-10-01 04:00:00 13.4 26 Oeste 42 Oeste 0 -- -- 51
2020-10-01 03:00:00 13.6 27 Oeste 38 Oeste 0 -- -- 47
2020-10-01 02:00:00 13.7 27 Oeste 36 Oeste 0 -- -- 45
2020-10-01 01:00:00 13.7 21 Oeste 28 Oeste 0 -- -- 50
2020-10-01 00:00:00 13.4 21 Oeste 24 Oeste 0 -- -- 57